createdAt,value
2022-09-10T00:02:41.548Z,97758.88
2022-09-10T00:05:44.822Z,97757.84
2022-09-10T00:08:47.502Z,97768.22
2022-09-10T00:11:49.268Z,97779.19
2022-09-10T00:14:53.561Z,97781.41
2022-09-10T00:17:55.239Z,97776.28
2022-09-10T00:21:00.825Z,97777.50
2022-09-10T00:24:03.106Z,97784.88
2022-09-10T00:27:05.023Z,97787.09
2022-09-10T00:30:07.373Z,97776.13
2022-09-10T00:33:09.781Z,97781.97
2022-09-10T00:36:26.162Z,97770.06
2022-09-10T00:39:28.026Z,97772.16
2022-09-10T00:42:30.495Z,97767.78
2022-09-10T00:45:34.310Z,97762.34
2022-09-10T00:48:36.177Z,97765.59
2022-09-10T00:51:38.028Z,97747.81
2022-09-10T00:54:41.118Z,97762.34
2022-09-10T00:57:43.462Z,97758.34
2022-09-10T01:00:45.650Z,97763.09
2022-09-10T01:03:49.889Z,97761.00
2022-09-10T01:06:52.084Z,97751.41
2022-09-10T01:09:53.794Z,97743.69
2022-09-10T01:13:15.451Z,97743.81
2022-09-10T01:16:48.550Z,97730.50
2022-09-10T01:20:17.171Z,97742.03
2022-09-10T01:24:00.245Z,97739.03
2022-09-10T01:27:07.736Z,97738.97
2022-09-10T01:30:16.058Z,97728.31
2022-09-10T01:33:27.036Z,97730.47
2022-09-10T01:36:31.491Z,97740.72
2022-09-10T01:39:34.324Z,97735.81
2022-09-10T01:42:38.295Z,97742.41
2022-09-10T01:46:12.525Z,97731.78
2022-09-10T01:49:37.384Z,97735.44
2022-09-10T01:52:47.302Z,97735.63
2022-09-10T01:56:09.825Z,97726.88
2022-09-10T01:59:26.825Z,97736.34
2022-09-10T02:02:37.171Z,97728.16
2022-09-10T02:05:40.712Z,97720.13
2022-09-10T02:08:47.193Z,97728.34
2022-09-10T02:11:51.974Z,97733.34
2022-09-10T02:15:09.932Z,97724.88
2022-09-10T02:18:33.945Z,97729.59
2022-09-10T02:21:35.824Z,97728.03
2022-09-10T02:24:39.077Z,97725.19
2022-09-10T02:27:43.341Z,97719.09
2022-09-10T02:30:45.035Z,97721.00
2022-09-10T02:33:46.752Z,97711.50
2022-09-10T02:36:49.531Z,97711.88
2022-09-10T02:39:51.298Z,97700.09
2022-09-10T02:42:53.010Z,97697.63
2022-09-10T02:45:59.157Z,97698.06
2022-09-10T02:49:00.896Z,97684.63
2022-09-10T02:52:05.540Z,97689.59
2022-09-10T02:55:08.576Z,97692.25
2022-09-10T02:58:10.472Z,97698.44
2022-09-10T03:01:19.600Z,97700.03
2022-09-10T03:04:28.418Z,97689.97
2022-09-10T03:07:30.522Z,97698.53
2022-09-10T03:10:33.198Z,97700.19
2022-09-10T03:13:35.215Z,97701.38
2022-09-10T03:16:36.998Z,97704.66
2022-09-10T03:19:41.244Z,97711.75
2022-09-10T03:22:42.959Z,97709.09
2022-09-10T03:25:49.941Z,97711.81
2022-09-10T03:28:56.412Z,97712.75
2022-09-10T03:32:01.255Z,97709.09
2022-09-10T03:35:03.499Z,97712.88
2022-09-10T03:38:06.337Z,97713.72
2022-09-10T03:41:08.602Z,97705.34
2022-09-10T03:44:10.424Z,97711.88
2022-09-10T03:47:13.426Z,97708.59
2022-09-10T03:50:15.628Z,97698.75
2022-09-10T03:53:18.312Z,97696.88
2022-09-10T03:56:21.038Z,97690.94
2022-09-10T03:59:22.901Z,97683.97
2022-09-10T04:02:24.757Z,97688.91
2022-09-10T04:05:27.681Z,97687.00
2022-09-10T04:08:29.392Z,97679.34
2022-09-10T04:11:31.268Z,97676.88
2022-09-10T04:14:34.485Z,97693.44
2022-09-10T04:17:38.610Z,97684.25
2022-09-10T04:20:40.707Z,97693.28
2022-09-10T04:23:45.861Z,97690.13
2022-09-10T04:26:47.565Z,97688.53
2022-09-10T04:29:51.846Z,97688.97
2022-09-10T04:32:54.807Z,97694.66
2022-09-10T04:36:00.985Z,97690.00
2022-09-10T04:39:04.115Z,97683.25
2022-09-10T04:42:09.143Z,97683.69
2022-09-10T04:45:15.298Z,97679.94
2022-09-10T04:48:17.118Z,97669.59
2022-09-10T04:51:18.940Z,97677.06
2022-09-10T04:54:23.392Z,97677.13
2022-09-10T04:57:26.072Z,97676.66
2022-09-10T05:00:28.616Z,97688.72
2022-09-10T05:03:30.453Z,97695.00
2022-09-10T05:06:34.510Z,97699.19
2022-09-10T05:09:38.476Z,97700.03
2022-09-10T05:12:40.626Z,97706.06
2022-09-10T05:15:42.775Z,97710.16
2022-09-10T05:18:44.778Z,97706.44
2022-09-10T05:21:48.452Z,97707.91
2022-09-10T05:24:50.714Z,97703.88
2022-09-10T05:27:52.916Z,97704.25
2022-09-10T05:30:57.143Z,97696.75
2022-09-10T05:34:02.138Z,97696.38
2022-09-10T05:37:06.117Z,97701.53
2022-09-10T05:40:11.085Z,97693.44
2022-09-10T05:43:13.196Z,97694.88
2022-09-10T05:46:15.676Z,97695.03
2022-09-10T05:49:20.854Z,97700.81
2022-09-10T05:52:24.475Z,97690.94
2022-09-10T05:55:27.283Z,97696.09
2022-09-10T05:58:30.191Z,97683.13
2022-09-10T06:01:33.126Z,97685.19
2022-09-10T06:04:37.250Z,97692.53
2022-09-10T06:07:40.054Z,97693.16
2022-09-10T06:10:43.292Z,97692.25
2022-09-10T06:13:46.318Z,97699.66
2022-09-10T06:16:50.136Z,97704.66
2022-09-10T06:19:52.324Z,97704.88
2022-09-10T06:22:55.126Z,97703.66
2022-09-10T06:26:05.471Z,97721.06
2022-09-10T06:29:09.288Z,97715.09
2022-09-10T06:32:14.414Z,97709.19
2022-09-10T06:35:18.229Z,97707.88
2022-09-10T06:38:20.275Z,97710.00
2022-09-10T06:41:22.638Z,97706.66
2022-09-10T06:44:30.059Z,97703.53
2022-09-10T06:51:16.068Z,97706.22
2022-09-10T06:54:19.012Z,97712.47
2022-09-10T06:57:20.904Z,97707.09
2022-09-10T07:00:22.905Z,97706.97
2022-09-10T07:03:28.226Z,97711.75
2022-09-10T07:06:34.865Z,97701.78
2022-09-10T07:09:49.662Z,97702.66
2022-09-10T07:12:52.568Z,97702.47
2022-09-10T07:15:56.300Z,97700.75
2022-09-10T07:19:00.001Z,97709.75
2022-09-10T07:22:21.880Z,97705.88
2022-09-10T07:25:25.328Z,97706.69
2022-09-10T07:28:53.851Z,97706.84
2022-09-10T07:31:57.238Z,97702.72
2022-09-10T07:34:59.800Z,97704.03
2022-09-10T07:38:14.234Z,97706.41
2022-09-10T07:41:18.849Z,97712.50
2022-09-10T07:44:22.474Z,97711.41
2022-09-10T07:47:25.521Z,97715.75
2022-09-10T07:50:27.635Z,97725.97
2022-09-10T07:53:31.017Z,97723.13
2022-09-10T07:56:34.805Z,97734.88
2022-09-10T07:59:39.878Z,97742.59
2022-09-10T08:02:47.456Z,97746.00
2022-09-10T08:05:55.491Z,97738.13
2022-09-10T08:08:58.850Z,97742.19
2022-09-10T08:12:03.329Z,97747.00
2022-09-10T08:15:07.501Z,97751.31
2022-09-10T08:18:12.155Z,97745.44
2022-09-10T08:21:17.762Z,97739.34
2022-09-10T08:24:22.251Z,97749.34
2022-09-10T08:27:26.421Z,97740.28
2022-09-10T08:30:32.525Z,97744.69
2022-09-10T08:33:36.863Z,97745.44
2022-09-10T08:36:41.080Z,97738.09
2022-09-10T08:39:43.469Z,97741.22
2022-09-10T08:42:49.722Z,97725.97
2022-09-10T08:45:54.652Z,97732.25
2022-09-10T08:49:14.431Z,97735.13
2022-09-10T08:52:42.013Z,97731.31
2022-09-10T08:55:58.721Z,97730.66
2022-09-10T08:59:22.383Z,97740.59
2022-09-10T09:02:48.445Z,97739.19
2022-09-10T09:05:58.678Z,97731.63
2022-09-10T09:09:15.268Z,97730.38
2022-09-10T09:12:30.289Z,97730.06
2022-09-10T09:15:39.208Z,97734.75
2022-09-10T09:19:02.062Z,97729.78
2022-09-10T09:22:08.112Z,97738.59
2022-09-10T09:25:51.595Z,97739.50
2022-09-10T09:29:01.813Z,97742.84
2022-09-10T09:32:05.811Z,97740.78
2022-09-10T09:35:34.848Z,97734.66
2022-09-10T09:38:51.127Z,97730.59
2022-09-10T09:42:16.238Z,97731.03
2022-09-10T09:45:18.630Z,97725.16
2022-09-10T09:48:22.670Z,97726.25
2022-09-10T09:51:30.764Z,97734.50
2022-09-10T09:55:03.291Z,97732.69
2022-09-10T09:58:21.171Z,97722.91
2022-09-10T10:01:25.256Z,97722.59
2022-09-10T10:04:31.387Z,97727.53
2022-09-10T10:07:34.985Z,97729.72
2022-09-10T10:10:36.927Z,97722.00
2022-09-10T10:13:44.614Z,97729.78
2022-09-10T10:16:48.683Z,97721.66
2022-09-10T10:20:16.947Z,97718.44
2022-09-10T10:23:39.295Z,97725.38
2022-09-10T10:26:44.152Z,97722.53
2022-09-10T10:29:58.355Z,97714.56
2022-09-10T10:33:02.012Z,97710.41
2022-09-10T10:36:13.636Z,97702.00
2022-09-10T10:39:20.883Z,97706.16
2022-09-10T10:42:35.119Z,97704.66
2022-09-10T10:45:57.746Z,97706.06
2022-09-10T10:49:17.116Z,97704.03
2022-09-10T10:52:37.411Z,97699.84
2022-09-10T10:55:42.279Z,97703.34
2022-09-10T10:59:04.749Z,97702.41
2022-09-10T11:02:36.603Z,97701.00
2022-09-10T11:05:42.033Z,97693.13
2022-09-10T11:08:53.661Z,97703.81
2022-09-10T11:12:02.931Z,97713.69
2022-09-10T11:15:20.208Z,97719.03
2022-09-10T11:18:34.697Z,97704.09
2022-09-10T11:21:44.258Z,97700.22
2022-09-10T11:24:51.774Z,97699.09
2022-09-10T11:28:06.117Z,97700.97
2022-09-10T11:31:32.024Z,97696.94
2022-09-10T11:35:05.417Z,97691.28
2022-09-10T11:38:24.894Z,97690.50
2022-09-10T11:41:32.888Z,97673.41
2022-09-10T11:44:40.633Z,97670.16
2022-09-10T11:47:47.918Z,97667.25
2022-09-10T11:50:56.289Z,97671.75
2022-09-10T11:53:58.494Z,97668.28
2022-09-10T11:57:22.598Z,97668.03
2022-09-10T12:00:25.905Z,97668.81
2022-09-10T12:03:38.355Z,97662.69
2022-09-10T12:07:00.053Z,97647.06
2022-09-10T12:10:34.159Z,97652.16
2022-09-10T12:13:39.585Z,97662.84
2022-09-10T12:17:11.532Z,97647.88
2022-09-10T12:20:18.719Z,97641.28
2022-09-10T12:23:27.798Z,97636.81
2022-09-10T12:26:30.144Z,97645.44
2022-09-10T12:29:34.954Z,97640.00
2022-09-10T12:32:37.027Z,97632.31
2022-09-10T12:35:48.219Z,97621.88
2022-09-10T12:39:12.933Z,97634.66
2022-09-10T12:42:45.496Z,97626.84
2022-09-10T12:46:13.082Z,97622.44
2022-09-10T12:49:17.235Z,97622.31
2022-09-10T12:52:35.774Z,97619.97
2022-09-10T12:55:54.780Z,97611.94
2022-09-10T12:59:18.766Z,97612.91
2022-09-10T13:02:40.762Z,97621.63
2022-09-10T13:05:47.058Z,97622.91
2022-09-10T13:08:49.137Z,97617.09
2022-09-10T13:11:54.493Z,97615.91
2022-09-10T13:14:57.829Z,97616.75
2022-09-10T13:17:59.934Z,97609.78
2022-09-10T13:21:23.661Z,97610.31
2022-09-10T13:24:36.195Z,97604.22
2022-09-10T13:27:40.863Z,97598.41
2022-09-10T13:30:43.311Z,97587.53
2022-09-10T13:33:54.415Z,97601.28
2022-09-10T13:36:56.328Z,97609.28
2022-09-10T13:40:25.644Z,97606.94
2022-09-10T13:43:53.663Z,97610.94
2022-09-10T13:46:57.616Z,97602.31
2022-09-10T13:50:35.521Z,97617.81
2022-09-10T13:53:39.899Z,97625.06
2022-09-10T13:56:43.911Z,97639.41
2022-09-10T13:59:50.625Z,97675.91
2022-09-10T14:02:54.712Z,97678.69
2022-09-10T14:05:59.119Z,97684.19
2022-09-10T14:09:05.747Z,97684.47
2022-09-10T14:12:08.122Z,97695.47
2022-09-10T14:15:17.255Z,97697.47
2022-09-10T14:18:20.518Z,97687.06
2022-09-10T14:21:27.652Z,97682.34
2022-09-10T14:24:44.364Z,97678.91
2022-09-10T14:27:46.455Z,97672.94
2022-09-10T14:30:49.581Z,97664.97
2022-09-10T14:33:52.478Z,97663.94
2022-09-10T14:36:54.647Z,97656.88
2022-09-10T14:39:57.470Z,97651.94
2022-09-10T14:43:16.815Z,97658.59
2022-09-10T14:46:51.696Z,97653.81
2022-09-10T14:49:53.679Z,97665.06
2022-09-10T14:52:55.824Z,97664.03
2022-09-10T14:55:57.739Z,97672.63
2022-09-10T14:59:16.655Z,97665.75
2022-09-10T15:02:23.574Z,97678.50
2022-09-10T15:05:26.143Z,97686.75
2022-09-10T15:08:28.414Z,97693.13
2022-09-10T15:11:30.627Z,97692.53
2022-09-10T15:14:33.676Z,97697.88
2022-09-10T15:17:35.622Z,97690.16
2022-09-10T15:20:39.001Z,97695.66
2022-09-10T15:23:42.226Z,97686.72
2022-09-10T15:26:44.923Z,97699.06
2022-09-10T15:29:47.054Z,97705.09
2022-09-10T15:32:49.044Z,97707.28
2022-09-10T15:35:51.084Z,97707.28
2022-09-10T15:38:53.305Z,97709.44
2022-09-10T15:41:55.397Z,97704.91
2022-09-10T15:44:57.819Z,97705.50
2022-09-10T15:47:59.907Z,97706.19
2022-09-10T15:51:07.241Z,97699.59
2022-09-10T15:54:11.656Z,97696.25
2022-09-10T15:57:15.870Z,97701.69
2022-09-10T16:00:20.451Z,97694.53
2022-09-10T16:03:22.909Z,97688.28
2022-09-10T16:06:28.059Z,97685.06
2022-09-10T16:09:30.146Z,97682.16
2022-09-10T16:12:32.501Z,97684.31
2022-09-10T16:15:35.299Z,97689.03
2022-09-10T16:18:38.220Z,97703.56
2022-09-10T16:21:41.923Z,97706.34
2022-09-10T16:24:43.978Z,97706.81
2022-09-10T16:27:46.198Z,97707.63
2022-09-10T16:30:48.469Z,97708.06
2022-09-10T16:33:54.660Z,97708.38
2022-09-10T16:37:00.009Z,97710.84
2022-09-10T16:40:02.956Z,97709.19
2022-09-10T16:43:04.888Z,97698.97
2022-09-10T16:46:09.987Z,97697.09
2022-09-10T16:49:14.677Z,97696.28
2022-09-10T16:52:17.199Z,97701.13
2022-09-10T16:55:19.367Z,97705.97
2022-09-10T16:58:21.531Z,97708.41
2022-09-10T17:01:23.874Z,97707.59
2022-09-10T17:04:29.522Z,97692.75
2022-09-10T17:07:31.671Z,97698.75
2022-09-10T17:10:33.922Z,97698.47
2022-09-10T17:13:40.836Z,97700.84
2022-09-10T17:16:43.696Z,97701.38
2022-09-10T17:19:45.890Z,97698.34
2022-09-10T17:22:48.097Z,97699.72
2022-09-10T17:25:50.207Z,97700.47
2022-09-10T17:28:56.956Z,97713.84
2022-09-10T17:31:59.258Z,97709.94
2022-09-10T17:35:01.668Z,97712.94
2022-09-10T17:38:03.790Z,97720.50
2022-09-10T17:41:06.045Z,97724.31
2022-09-10T17:44:08.470Z,97726.75
2022-09-10T17:47:12.267Z,97719.03
2022-09-10T17:50:14.922Z,97724.31
2022-09-10T17:53:18.307Z,97722.84
2022-09-10T17:56:21.471Z,97719.38
2022-09-10T17:59:26.046Z,97723.91
2022-09-10T18:02:29.493Z,97713.53
2022-09-10T18:05:32.506Z,97720.19
2022-09-10T18:08:35.732Z,97716.25
2022-09-10T18:11:40.397Z,97724.72
2022-09-10T18:14:44.129Z,97719.69
2022-09-10T18:17:46.298Z,97726.34
2022-09-10T18:20:49.395Z,97732.47
2022-09-10T18:23:56.913Z,97733.09
2022-09-10T18:27:04.944Z,97744.28
2022-09-10T18:30:10.531Z,97735.09
2022-09-10T18:33:18.183Z,97743.72
2022-09-10T18:36:20.746Z,97750.53
2022-09-10T18:39:25.229Z,97757.91
2022-09-10T18:42:27.676Z,97755.09
2022-09-10T18:45:30.247Z,97756.56
2022-09-10T18:48:36.170Z,97753.94
2022-09-10T18:51:45.055Z,97747.59
2022-09-10T18:54:47.493Z,97757.91
2022-09-10T18:57:49.855Z,97758.31
2022-09-10T19:00:56.625Z,97752.75
2022-09-10T19:04:08.471Z,97741.72
2022-09-10T19:07:17.356Z,97748.50
2022-09-10T19:11:04.337Z,97745.94
2022-09-10T19:14:47.996Z,97744.25
2022-09-10T19:17:50.609Z,97750.31
2022-09-10T19:21:15.607Z,97752.84
2022-09-10T19:24:56.245Z,97747.19
2022-09-10T19:28:21.707Z,97751.22
2022-09-10T19:31:55.135Z,97758.72
2022-09-10T19:35:56.472Z,97764.72
2022-09-10T19:39:07.933Z,97757.22
2022-09-10T19:42:47.465Z,97762.25
2022-09-10T19:46:00.678Z,97760.63
2022-09-10T19:49:09.775Z,97756.97
2022-09-10T19:52:15.160Z,97749.34
2022-09-10T19:55:22.583Z,97746.53
2022-09-10T19:58:32.555Z,97747.34
2022-09-10T20:01:47.216Z,97745.72
2022-09-10T20:05:00.444Z,97741.47
2022-09-10T20:08:09.968Z,97741.34
2022-09-10T20:11:35.932Z,97754.28
2022-09-10T20:14:38.527Z,97757.13
2022-09-10T20:17:42.749Z,97751.16
2022-09-10T20:20:44.906Z,97753.69
2022-09-10T20:23:48.854Z,97755.47
2022-09-10T20:26:51.098Z,97753.94
2022-09-10T20:29:55.433Z,97754.91
2022-09-10T20:32:57.680Z,97758.47
2022-09-10T20:35:59.800Z,97754.50
2022-09-10T20:39:02.379Z,97749.22
2022-09-10T20:42:05.126Z,97750.50
2022-09-10T20:45:07.415Z,97752.22
2022-09-10T20:48:10.080Z,97754.66
2022-09-10T20:51:12.826Z,97757.66
2022-09-10T20:54:16.984Z,97761.75
2022-09-10T20:57:21.273Z,97759.13
2022-09-10T21:00:23.725Z,97764.59
2022-09-10T21:03:26.817Z,97758.47
2022-09-10T21:06:31.620Z,97765.81
2022-09-10T21:09:33.508Z,97765.19
2022-09-10T21:12:35.638Z,97764.47
2022-09-10T21:15:37.681Z,97769.03
2022-09-10T21:18:43.913Z,97767.69
2022-09-10T21:21:48.989Z,97774.38
2022-09-10T21:24:51.205Z,97772.81
2022-09-10T21:27:53.482Z,97766.25
2022-09-10T21:30:55.468Z,97779.91
2022-09-10T21:34:02.768Z,97775.56
2022-09-10T21:37:05.342Z,97772.09
2022-09-10T21:40:08.244Z,97770.81
2022-09-10T21:43:10.218Z,97768.34
2022-09-10T21:46:13.857Z,97770.81
2022-09-10T21:49:16.345Z,97760.41
2022-09-10T21:52:18.355Z,97767.75
2022-09-10T21:55:23.504Z,97769.69
2022-09-10T21:58:28.047Z,97765.69
2022-09-10T22:01:31.603Z,97769.88
2022-09-10T22:04:36.482Z,97770.00
2022-09-10T22:07:39.073Z,97777.06
2022-09-10T22:10:42.661Z,97775.28
2022-09-10T22:13:46.120Z,97765.88
2022-09-10T22:16:54.435Z,97757.44
2022-09-10T22:19:56.904Z,97763.13
2022-09-10T22:23:00.301Z,97763.75
2022-09-10T22:26:14.609Z,97750.63
2022-09-10T22:29:18.702Z,97757.41
2022-09-10T22:32:20.949Z,97758.19
2022-09-10T22:35:27.044Z,97760.84
2022-09-10T22:38:30.086Z,97766.75
2022-09-10T22:41:34.201Z,97760.38
2022-09-10T22:44:38.922Z,97756.84
2022-09-10T22:47:40.886Z,97751.91
2022-09-10T22:50:43.438Z,97751.22
2022-09-10T22:53:49.355Z,97747.69
2022-09-10T22:56:51.880Z,97743.13
2022-09-10T22:59:56.540Z,97746.31
2022-09-10T23:02:58.741Z,97739.16
2022-09-10T23:06:08.615Z,97738.81
2022-09-10T23:09:13.740Z,97734.72
2022-09-10T23:12:15.703Z,97738.00
2022-09-10T23:15:18.487Z,97738.28
2022-09-10T23:18:20.627Z,97741.09
2022-09-10T23:21:26.360Z,97734.94
2022-09-10T23:24:28.497Z,97741.38
2022-09-10T23:27:31.344Z,97733.22
2022-09-10T23:30:36.411Z,97741.78
2022-09-10T23:33:40.767Z,97752.28
2022-09-10T23:36:44.620Z,97738.72
2022-09-10T23:39:47.759Z,97735.22
2022-09-10T23:42:50.183Z,97742.75
2022-09-10T23:45:52.351Z,97744.28
2022-09-10T23:48:55.101Z,97742.75
2022-09-10T23:51:59.827Z,97744.28
2022-09-10T23:55:02.265Z,97738.94
2022-09-10T23:58:04.482Z,97748.16
